sensor_id;sensor_type;location;lat;lon;timestamp;pressure;altitude;pressure_sealevel;temperature;humidity
35989;BME280;22064;42.672;23.282;2023-05-12T00:02:14;94871.72;;;8.70;100.00
35989;BME280;22064;42.672;23.282;2023-05-12T00:04:40;94863.78;;;8.65;100.00
35989;BME280;22064;42.672;23.282;2023-05-12T00:07:06;94876.00;;;8.76;100.00
35989;BME280;22064;42.672;23.282;2023-05-12T00:09:32;94877.56;;;8.77;100.00
35989;BME280;22064;42.672;23.282;2023-05-12T00:11:58;94873.41;;;8.76;100.00
35989;BME280;22064;42.672;23.282;2023-05-12T00:14:24;94874.63;;;8.74;100.00
35989;BME280;22064;42.672;23.282;2023-05-12T00:16:50;94876.91;;;8.70;100.00
35989;BME280;22064;42.672;23.282;2023-05-12T00:19:17;94876.56;;;8.67;100.00
35989;BME280;22064;42.672;23.282;2023-05-12T00:21:43;94865.72;;;8.70;100.00
35989;BME280;22064;42.672;23.282;2023-05-12T00:24:09;94864.38;;;8.67;100.00
35989;BME280;22064;42.672;23.282;2023-05-12T00:26:35;94868.63;;;8.62;100.00
35989;BME280;22064;42.672;23.282;2023-05-12T00:29:02;94880.28;;;8.71;100.00
35989;BME280;22064;42.672;23.282;2023-05-12T00:31:30;94868.63;;;8.62;100.00
35989;BME280;22064;42.672;23.282;2023-05-12T00:33:56;94875.41;;;8.63;100.00
35989;BME280;22064;42.672;23.282;2023-05-12T00:36:23;94870.31;;;8.56;100.00
35989;BME280;22064;42.672;23.282;2023-05-12T00:38:49;94871.00;;;8.51;100.00
35989;BME280;22064;42.672;23.282;2023-05-12T00:41:15;94876.50;;;8.43;100.00
35989;BME280;22064;42.672;23.282;2023-05-12T00:43:41;94874.13;;;8.42;100.00
35989;BME280;22064;42.672;23.282;2023-05-12T00:46:07;94882.19;;;8.33;100.00
35989;BME280;22064;42.672;23.282;2023-05-12T00:48:34;94884.44;;;8.30;100.00
35989;BME280;22064;42.672;23.282;2023-05-12T00:51:02;94885.47;;;8.29;100.00
35989;BME280;22064;42.672;23.282;2023-05-12T00:53:30;94880.88;;;8.13;100.00
35989;BME280;22064;42.672;23.282;2023-05-12T00:55:56;94885.72;;;8.09;100.00
35989;BME280;22064;42.672;23.282;2023-05-12T00:58:24;94893.59;;;8.02;100.00
35989;BME280;22064;42.672;23.282;2023-05-12T01:00:50;94885.22;;;8.00;100.00
35989;BME280;22064;42.672;23.282;2023-05-12T01:03:16;94881.94;;;7.93;100.00
35989;BME280;22064;42.672;23.282;2023-05-12T01:08:23;94873.31;;;7.62;100.00
35989;BME280;22064;42.672;23.282;2023-05-12T01:10:51;94896.97;;;7.73;100.00
35989;BME280;22064;42.672;23.282;2023-05-12T01:13:18;94887.38;;;7.73;100.00
35989;BME280;22064;42.672;23.282;2023-05-12T01:15:46;94888.69;;;7.64;100.00
35989;BME280;22064;42.672;23.282;2023-05-12T01:18:14;94887.06;;;7.63;100.00
35989;BME280;22064;42.672;23.282;2023-05-12T01:20:43;94886.28;;;7.62;100.00
35989;BME280;22064;42.672;23.282;2023-05-12T01:23:12;94893.06;;;7.63;100.00
35989;BME280;22064;42.672;23.282;2023-05-12T01:25:38;94888.59;;;7.52;100.00
35989;BME280;22064;42.672;23.282;2023-05-12T01:28:06;94897.66;;;7.43;100.00
35989;BME280;22064;42.672;23.282;2023-05-12T01:30:34;94888.94;;;7.37;100.00
35989;BME280;22064;42.672;23.282;2023-05-12T01:33:01;94900.84;;;7.45;100.00
35989;BME280;22064;42.672;23.282;2023-05-12T01:35:27;94887.56;;;7.35;100.00
35989;BME280;22064;42.672;23.282;2023-05-12T01:37:58;94893.00;;;7.33;100.00
35989;BME280;22064;42.672;23.282;2023-05-12T01:40:24;94892.41;;;7.31;100.00
35989;BME280;22064;42.672;23.282;2023-05-12T01:42:52;94883.13;;;7.24;100.00
35989;BME280;22064;42.672;23.282;2023-05-12T01:45:18;94890.81;;;7.30;100.00
35989;BME280;22064;42.672;23.282;2023-05-12T01:47:44;94903.84;;;7.24;100.00
35989;BME280;22064;42.672;23.282;2023-05-12T01:50:10;94894.09;;;7.19;100.00
35989;BME280;22064;42.672;23.282;2023-05-12T01:52:37;94890.91;;;7.24;100.00
35989;BME280;22064;42.672;23.282;2023-05-12T01:55:06;94898.78;;;7.29;100.00
35989;BME280;22064;42.672;23.282;2023-05-12T01:57:38;94892.47;;;7.25;100.00
35989;BME280;22064;42.672;23.282;2023-05-12T02:00:05;94889.94;;;7.18;100.00
35989;BME280;22064;42.672;23.282;2023-05-12T02:02:39;94884.94;;;7.23;100.00
35989;BME280;22064;42.672;23.282;2023-05-12T02:05:05;94890.72;;;7.18;100.00
35989;BME280;22064;42.672;23.282;2023-05-12T02:07:32;94892.81;;;7.10;100.00
35989;BME280;22064;42.672;23.282;2023-05-12T02:09:58;94884.84;;;7.11;100.00
35989;BME280;22064;42.672;23.282;2023-05-12T02:12:24;94885.34;;;7.20;100.00
35989;BME280;22064;42.672;23.282;2023-05-12T02:14:50;94882.72;;;7.02;100.00
35989;BME280;22064;42.672;23.282;2023-05-12T02:17:16;94877.03;;;6.93;100.00
35989;BME280;22064;42.672;23.282;2023-05-12T02:19:43;94887.75;;;6.97;100.00
35989;BME280;22064;42.672;23.282;2023-05-12T02:22:11;94877.03;;;6.93;100.00
35989;BME280;22064;42.672;23.282;2023-05-12T02:24:37;94873.50;;;6.87;100.00
35989;BME280;22064;42.672;23.282;2023-05-12T02:27:04;94889.75;;;6.94;100.00
35989;BME280;22064;42.672;23.282;2023-05-12T02:29:30;94880.25;;;6.88;100.00
35989;BME280;22064;42.672;23.282;2023-05-12T02:31:56;94880.47;;;6.87;100.00
35989;BME280;22064;42.672;23.282;2023-05-12T02:34:22;94882.88;;;6.82;100.00
35989;BME280;22064;42.672;23.282;2023-05-12T02:36:48;94879.75;;;6.80;100.00
35989;BME280;22064;42.672;23.282;2023-05-12T02:39:15;94880.53;;;6.80;100.00
35989;BME280;22064;42.672;23.282;2023-05-12T02:41:42;94883.38;;;6.72;100.00
35989;BME280;22064;42.672;23.282;2023-05-12T02:44:08;94881.97;;;6.76;100.00
35989;BME280;22064;42.672;23.282;2023-05-12T02:46:34;94873.59;;;6.74;100.00
35989;BME280;22064;42.672;23.282;2023-05-12T02:49:00;94881.19;;;6.69;100.00
35989;BME280;22064;42.672;23.282;2023-05-12T02:51:26;94879.63;;;6.68;100.00
35989;BME280;22064;42.672;23.282;2023-05-12T02:53:52;94876.09;;;6.62;100.00
35989;BME280;22064;42.672;23.282;2023-05-12T02:56:18;94878.25;;;6.65;100.00
35989;BME280;22064;42.672;23.282;2023-05-12T02:58:45;94887.97;;;6.70;100.00
35989;BME280;22064;42.672;23.282;2023-05-12T03:01:11;94888.78;;;6.70;100.00
35989;BME280;22064;42.672;23.282;2023-05-12T03:03:38;94892.94;;;6.71;100.00
35989;BME280;22064;42.672;23.282;2023-05-12T03:06:04;94895.78;;;6.63;100.00
35989;BME280;22064;42.672;23.282;2023-05-12T03:08:30;94886.13;;;6.52;100.00
35989;BME280;22064;42.672;23.282;2023-05-12T03:10:57;94894.19;;;6.62;100.00
35989;BME280;22064;42.672;23.282;2023-05-12T03:13:23;94894.47;;;6.54;100.00
35989;BME280;22064;42.672;23.282;2023-05-12T03:15:50;94901.53;;;6.65;100.00
35989;BME280;22064;42.672;23.282;2023-05-12T03:18:16;94904.72;;;6.67;100.00
35989;BME280;22064;42.672;23.282;2023-05-12T03:20:42;94904.91;;;6.66;100.00
35989;BME280;22064;42.672;23.282;2023-05-12T03:23:08;94907.44;;;6.79;100.00
35989;BME280;22064;42.672;23.282;2023-05-12T03:25:34;94910.69;;;6.93;100.00
35989;BME280;22064;42.672;23.282;2023-05-12T03:28:01;94913.38;;;7.05;100.00
35989;BME280;22064;42.672;23.282;2023-05-12T03:30:28;94925.00;;;7.21;100.00
35989;BME280;22064;42.672;23.282;2023-05-12T03:32:54;94926.13;;;7.25;100.00
35989;BME280;22064;42.672;23.282;2023-05-12T03:35:20;94917.78;;;7.23;100.00
35989;BME280;22064;42.672;23.282;2023-05-12T03:37:47;94922.97;;;7.23;100.00
35989;BME280;22064;42.672;23.282;2023-05-12T03:40:13;94918.28;;;7.13;100.00
35989;BME280;22064;42.672;23.282;2023-05-12T03:42:43;94924.28;;;7.07;100.00
35989;BME280;22064;42.672;23.282;2023-05-12T03:45:10;94911.56;;;7.05;100.00
35989;BME280;22064;42.672;23.282;2023-05-12T03:47:37;94928.53;;;7.26;100.00
35989;BME280;22064;42.672;23.282;2023-05-12T03:50:06;94937.78;;;7.15;100.00
35989;BME280;22064;42.672;23.282;2023-05-12T03:52:33;94924.22;;;6.95;100.00
35989;BME280;22064;42.672;23.282;2023-05-12T03:55:00;94923.19;;;6.96;100.00
35989;BME280;22064;42.672;23.282;2023-05-12T03:57:26;94924.72;;;7.04;100.00
35989;BME280;22064;42.672;23.282;2023-05-12T03:59:52;94935.19;;;7.15;100.00
35989;BME280;22064;42.672;23.282;2023-05-12T04:02:18;94931.03;;;7.14;100.00
35989;BME280;22064;42.672;23.282;2023-05-12T04:04:44;94930.47;;;7.31;100.00
35989;BME280;22064;42.672;23.282;2023-05-12T04:07:10;94940.47;;;7.27;100.00
35989;BME280;22064;42.672;23.282;2023-05-12T04:09:37;94950.16;;;7.32;100.00
35989;BME280;22064;42.672;23.282;2023-05-12T04:12:03;94948.47;;;7.44;100.00
35989;BME280;22064;42.672;23.282;2023-05-12T04:14:29;94941.19;;;7.34;100.00
35989;BME280;22064;42.672;23.282;2023-05-12T04:16:56;94937.59;;;7.35;100.00
35989;BME280;22064;42.672;23.282;2023-05-12T04:19:24;94946.16;;;7.36;100.00
35989;BME280;22064;42.672;23.282;2023-05-12T04:21:49;94945.16;;;7.37;100.00
35989;BME280;22064;42.672;23.282;2023-05-12T04:24:15;94953.03;;;7.49;100.00
35989;BME280;22064;42.672;23.282;2023-05-12T04:26:41;94942.84;;;7.47;100.00
35989;BME280;22064;42.672;23.282;2023-05-12T04:29:07;94940.66;;;7.51;100.00
35989;BME280;22064;42.672;23.282;2023-05-12T04:31:33;94945.75;;;7.39;100.00
35989;BME280;22064;42.672;23.282;2023-05-12T04:34:01;94935.22;;;7.34;100.00
35989;BME280;22064;42.672;23.282;2023-05-12T04:36:29;94948.81;;;7.29;100.00
35989;BME280;22064;42.672;23.282;2023-05-12T04:38:55;94943.34;;;7.37;100.00
35989;BME280;22064;42.672;23.282;2023-05-12T04:41:21;94937.38;;;7.37;100.00
35989;BME280;22064;42.672;23.282;2023-05-12T04:43:47;94941.78;;;7.36;100.00
35989;BME280;22064;42.672;23.282;2023-05-12T04:46:14;94940.41;;;7.34;100.00
35989;BME280;22064;42.672;23.282;2023-05-12T04:48:40;94942.25;;;7.27;100.00
35989;BME280;22064;42.672;23.282;2023-05-12T04:51:08;94928.88;;;7.30;100.00
35989;BME280;22064;42.672;23.282;2023-05-12T04:53:34;94942.91;;;7.40;100.00
35989;BME280;22064;42.672;23.282;2023-05-12T04:56:02;94945.88;;;7.44;100.00
35989;BME280;22064;42.672;23.282;2023-05-12T04:58:31;94948.63;;;7.49;100.00
35989;BME280;22064;42.672;23.282;2023-05-12T05:00:57;94954.94;;;7.53;100.00
35989;BME280;22064;42.672;23.282;2023-05-12T05:03:23;94938.97;;;7.56;100.00
35989;BME280;22064;42.672;23.282;2023-05-12T05:05:50;94942.16;;;7.58;100.00
35989;BME280;22064;42.672;23.282;2023-05-12T05:08:16;94952.38;;;7.72;100.00
35989;BME280;22064;42.672;23.282;2023-05-12T05:10:43;94955.91;;;7.77;100.00
35989;BME280;22064;42.672;23.282;2023-05-12T05:13:08;94948.72;;;7.79;100.00
35989;BME280;22064;42.672;23.282;2023-05-12T05:15:34;94957.34;;;7.92;100.00
35989;BME280;22064;42.672;23.282;2023-05-12T05:18:00;94963.75;;;8.07;100.00
35989;BME280;22064;42.672;23.282;2023-05-12T05:20:26;94949.69;;;7.97;100.00
35989;BME280;22064;42.672;23.282;2023-05-12T05:22:53;94950.78;;;8.07;100.00
35989;BME280;22064;42.672;23.282;2023-05-12T05:25:19;94953.31;;;8.14;100.00
35989;BME280;22064;42.672;23.282;2023-05-12T05:27:45;94961.66;;;8.16;100.00
35989;BME280;22064;42.672;23.282;2023-05-12T05:30:11;94958.56;;;8.07;100.00
35989;BME280;22064;42.672;23.282;2023-05-12T05:32:39;94953.47;;;8.01;100.00
35989;BME280;22064;42.672;23.282;2023-05-12T05:35:06;94964.91;;;7.93;100.00
35989;BME280;22064;42.672;23.282;2023-05-12T05:37:36;94961.69;;;7.98;100.00
35989;BME280;22064;42.672;23.282;2023-05-12T05:40:02;94958.16;;;7.92;100.00
35989;BME280;22064;42.672;23.282;2023-05-12T05:42:29;94964.72;;;7.95;100.00
35989;BME280;22064;42.672;23.282;2023-05-12T05:44:55;94960.38;;;7.89;100.00
35989;BME280;22064;42.672;23.282;2023-05-12T05:47:22;94957.28;;;7.98;100.00
35989;BME280;22064;42.672;23.282;2023-05-12T05:49:49;94958.22;;;8.04;100.00
35989;BME280;22064;42.672;23.282;2023-05-12T05:52:15;94944.16;;;7.93;100.00
35989;BME280;22064;42.672;23.282;2023-05-12T05:54:41;94958.22;;;8.04;100.00
35989;BME280;22064;42.672;23.282;2023-05-12T05:57:07;94962.44;;;8.17;100.00
35989;BME280;22064;42.672;23.282;2023-05-12T05:59:33;94969.28;;;8.29;100.00
35989;BME280;22064;42.672;23.282;2023-05-12T06:02:00;94949.41;;;8.23;100.00
35989;BME280;22064;42.672;23.282;2023-05-12T06:04:26;94971.13;;;8.41;100.00
35989;BME280;22064;42.672;23.282;2023-05-12T06:06:52;94958.53;;;8.44;100.00
35989;BME280;22064;42.672;23.282;2023-05-12T06:09:19;94972.56;;;8.55;100.00
35989;BME280;22064;42.672;23.282;2023-05-12T06:11:45;94974.81;;;8.51;100.00
35989;BME280;22064;42.672;23.282;2023-05-12T06:14:11;94972.66;;;8.48;100.00
35989;BME280;22064;42.672;23.282;2023-05-12T06:16:37;94975.16;;;8.55;100.00
35989;BME280;22064;42.672;23.282;2023-05-12T06:19:04;94979.75;;;8.41;100.00
35989;BME280;22064;42.672;23.282;2023-05-12T06:21:29;94958.56;;;8.38;100.00
35989;BME280;22064;42.672;23.282;2023-05-12T06:23:56;94966.50;;;8.61;100.00
35989;BME280;22064;42.672;23.282;2023-05-12T06:26:22;94968.25;;;8.49;100.00
35989;BME280;22064;42.672;23.282;2023-05-12T06:28:48;94972.91;;;8.59;100.00
35989;BME280;22064;42.672;23.282;2023-05-12T06:31:14;94980.75;;;8.70;100.00
35989;BME280;22064;42.672;23.282;2023-05-12T06:33:40;94977.69;;;8.73;100.00
35989;BME280;22064;42.672;23.282;2023-05-12T06:36:06;94987.84;;;8.75;100.00
35989;BME280;22064;42.672;23.282;2023-05-12T06:38:32;94995.81;;;8.92;100.00
35989;BME280;22064;42.672;23.282;2023-05-12T06:40:58;94990.53;;;8.98;100.00
35989;BME280;22064;42.672;23.282;2023-05-12T06:43:23;94992.59;;;9.20;100.00
35989;BME280;22064;42.672;23.282;2023-05-12T06:45:53;94990.78;;;9.20;100.00
35989;BME280;22064;42.672;23.282;2023-05-12T06:48:21;94994.50;;;9.13;100.00
35989;BME280;22064;42.672;23.282;2023-05-12T06:50:47;94987.41;;;9.20;100.00
35989;BME280;22064;42.672;23.282;2023-05-12T06:53:13;94994.97;;;9.10;100.00
35989;BME280;22064;42.672;23.282;2023-05-12T06:55:39;94991.34;;;9.11;100.00
35989;BME280;22064;42.672;23.282;2023-05-12T06:58:07;94987.28;;;9.15;100.00
35989;BME280;22064;42.672;23.282;2023-05-12T07:00:33;94977.91;;;9.25;100.00
35989;BME280;22064;42.672;23.282;2023-05-12T07:02:59;94989.09;;;9.26;100.00
35989;BME280;22064;42.672;23.282;2023-05-12T07:05:26;94992.69;;;9.25;100.00
35989;BME280;22064;42.672;23.282;2023-05-12T07:07:52;94984.56;;;9.21;100.00
35989;BME280;22064;42.672;23.282;2023-05-12T07:10:18;94995.06;;;9.15;100.00
35989;BME280;22064;42.672;23.282;2023-05-12T07:12:45;94986.94;;;9.23;100.00
35989;BME280;22064;42.672;23.282;2023-05-12T07:15:11;94986.72;;;9.24;100.00
35989;BME280;22064;42.672;23.282;2023-05-12T07:17:37;94997.69;;;9.38;100.00
35989;BME280;22064;42.672;23.282;2023-05-12T07:20:03;94997.22;;;9.30;100.00
35989;BME280;22064;42.672;23.282;2023-05-12T07:22:30;94989.91;;;9.38;100.00
35989;BME280;22064;42.672;23.282;2023-05-12T07:24:57;94999.28;;;9.39;100.00
35989;BME280;22064;42.672;23.282;2023-05-12T07:27:23;95002.53;;;9.46;100.00
35989;BME280;22064;42.672;23.282;2023-05-12T07:29:48;95000.41;;;9.67;100.00
35989;BME280;22064;42.672;23.282;2023-05-12T07:32:14;94993.50;;;9.84;100.00
35989;BME280;22064;42.672;23.282;2023-05-12T07:34:40;94993.72;;;9.94;100.00
35989;BME280;22064;42.672;23.282;2023-05-12T07:37:06;94999.13;;;10.05;100.00
35989;BME280;22064;42.672;23.282;2023-05-12T07:39:32;95006.13;;;10.16;100.00
35989;BME280;22064;42.672;23.282;2023-05-12T07:41:58;95000.81;;;9.99;100.00
35989;BME280;22064;42.672;23.282;2023-05-12T07:44:24;95008.09;;;9.85;100.00
35989;BME280;22064;42.672;23.282;2023-05-12T07:46:50;95006.50;;;9.84;100.00
35989;BME280;22064;42.672;23.282;2023-05-12T07:49:16;95004.22;;;10.00;100.00
35989;BME280;22064;42.672;23.282;2023-05-12T07:51:42;95002.50;;;10.05;100.00
35989;BME280;22064;42.672;23.282;2023-05-12T07:54:07;95007.03;;;10.10;100.00
35989;BME280;22064;42.672;23.282;2023-05-12T07:56:34;94993.53;;;10.36;100.00
35989;BME280;22064;42.672;23.282;2023-05-12T07:59:00;94999.47;;;10.60;100.00
35989;BME280;22064;42.672;23.282;2023-05-12T08:01:25;94996.97;;;10.82;100.00
35989;BME280;22064;42.672;23.282;2023-05-12T08:03:51;94993.81;;;10.80;100.00
35989;BME280;22064;42.672;23.282;2023-05-12T08:06:17;94986.78;;;10.81;100.00
35989;BME280;22064;42.672;23.282;2023-05-12T08:08:44;94988.19;;;11.17;100.00
35989;BME280;22064;42.672;23.282;2023-05-12T08:11:10;94987.38;;;11.50;100.00
35989;BME280;22064;42.672;23.282;2023-05-12T08:13:36;94995.22;;;11.17;100.00
35989;BME280;22064;42.672;23.282;2023-05-12T08:16:03;94994.72;;;11.37;100.00
35989;BME280;22064;42.672;23.282;2023-05-12T08:18:29;94998.28;;;11.30;100.00
35989;BME280;22064;42.672;23.282;2023-05-12T08:20:55;94987.25;;;11.40;100.00
35989;BME280;22064;42.672;23.282;2023-05-12T08:23:21;94995.50;;;11.71;100.00
35989;BME280;22064;42.672;23.282;2023-05-12T08:25:47;94989.56;;;11.92;100.00
35989;BME280;22064;42.672;23.282;2023-05-12T08:28:13;95006.25;;;11.91;100.00
35989;BME280;22064;42.672;23.282;2023-05-12T08:30:40;94999.38;;;11.85;100.00
35989;BME280;22064;42.672;23.282;2023-05-12T08:33:06;94995.03;;;11.91;100.00
35989;BME280;22064;42.672;23.282;2023-05-12T08:35:32;94995.53;;;12.10;100.00
35989;BME280;22064;42.672;23.282;2023-05-12T08:37:58;95000.47;;;12.55;100.00
35989;BME280;22064;42.672;23.282;2023-05-12T08:40:24;95004.47;;;12.85;100.00
35989;BME280;22064;42.672;23.282;2023-05-12T08:45:25;95001.56;;;13.08;100.00
35989;BME280;22064;42.672;23.282;2023-05-12T08:47:52;94996.00;;;13.05;100.00
35989;BME280;22064;42.672;23.282;2023-05-12T08:50:21;95000.31;;;12.89;100.00
35989;BME280;22064;42.672;23.282;2023-05-12T08:52:47;95006.09;;;12.91;100.00
35989;BME280;22064;42.672;23.282;2023-05-12T08:55:13;94996.59;;;13.12;100.00
35989;BME280;22064;42.672;23.282;2023-05-12T08:57:40;94999.97;;;13.07;100.00
35989;BME280;22064;42.672;23.282;2023-05-12T09:00:10;94992.38;;;12.79;100.00
35989;BME280;22064;42.672;23.282;2023-05-12T09:02:39;94999.75;;;13.14;100.00
35989;BME280;22064;42.672;23.282;2023-05-12T09:05:10;94977.34;;;13.23;100.00
35989;BME280;22064;42.672;23.282;2023-05-12T09:07:41;94982.09;;;13.63;100.00
35989;BME280;22064;42.672;23.282;2023-05-12T09:10:15;94977.22;;;13.77;100.00
35989;BME280;22064;42.672;23.282;2023-05-12T09:12:45;94990.53;;;13.71;100.00
35989;BME280;22064;42.672;23.282;2023-05-12T09:15:28;94979.53;;;13.69;100.00
35989;BME280;22064;42.672;23.282;2023-05-12T09:17:58;94976.69;;;13.75;100.00
35989;BME280;22064;42.672;23.282;2023-05-12T09:20:27;94977.00;;;13.84;100.00
35989;BME280;22064;42.672;23.282;2023-05-12T09:22:53;94982.94;;;13.69;100.00
35989;BME280;22064;42.672;23.282;2023-05-12T09:25:21;94976.88;;;13.63;100.00
35989;BME280;22064;42.672;23.282;2023-05-12T09:27:52;94971.72;;;13.79;100.00
35989;BME280;22064;42.672;23.282;2023-05-12T09:30:28;94980.72;;;13.93;100.00
35989;BME280;22064;42.672;23.282;2023-05-12T09:33:15;94969.50;;;14.03;100.00
35989;BME280;22064;42.672;23.282;2023-05-12T09:35:45;94977.16;;;14.15;100.00
35989;BME280;22064;42.672;23.282;2023-05-12T09:38:13;94975.63;;;14.24;100.00
35989;BME280;22064;42.672;23.282;2023-05-12T09:40:39;94977.75;;;14.42;100.00
35989;BME280;22064;42.672;23.282;2023-05-12T09:43:06;94974.38;;;14.37;100.00
35989;BME280;22064;42.672;23.282;2023-05-12T09:45:36;94985.22;;;14.66;100.00
35989;BME280;22064;42.672;23.282;2023-05-12T09:48:10;94988.38;;;14.78;100.00
35989;BME280;22064;42.672;23.282;2023-05-12T09:50:49;94983.44;;;14.19;100.00
35989;BME280;22064;42.672;23.282;2023-05-12T09:53:16;94982.44;;;14.25;100.00
35989;BME280;22064;42.672;23.282;2023-05-12T09:55:44;94971.72;;;14.31;100.00
35989;BME280;22064;42.672;23.282;2023-05-12T09:58:14;94961.44;;;14.20;100.00
35989;BME280;22064;42.672;23.282;2023-05-12T10:00:40;94965.28;;;14.70;100.00
35989;BME280;22064;42.672;23.282;2023-05-12T10:03:14;94972.16;;;14.86;100.00
35989;BME280;22064;42.672;23.282;2023-05-12T10:05:49;94970.88;;;14.99;97.79
35989;BME280;22064;42.672;23.282;2023-05-12T10:08:24;94965.88;;;15.13;93.05
35989;BME280;22064;42.672;23.282;2023-05-12T10:10:50;94962.69;;;14.85;94.34
35989;BME280;22064;42.672;23.282;2023-05-12T10:13:17;94966.38;;;14.94;93.78
35989;BME280;22064;42.672;23.282;2023-05-12T10:15:45;94956.41;;;14.91;93.35
35989;BME280;22064;42.672;23.282;2023-05-12T10:18:13;94957.47;;;14.80;99.07
35989;BME280;22064;42.672;23.282;2023-05-12T10:20:42;94962.69;;;14.70;96.53
35989;BME280;22064;42.672;23.282;2023-05-12T10:23:10;94958.53;;;14.94;97.37
35989;BME280;22064;42.672;23.282;2023-05-12T10:25:40;94951.94;;;14.82;93.00
35989;BME280;22064;42.672;23.282;2023-05-12T10:28:07;94957.47;;;14.90;88.58
35989;BME280;22064;42.672;23.282;2023-05-12T10:30:38;94958.50;;;14.79;86.35
35989;BME280;22064;42.672;23.282;2023-05-12T10:33:04;94951.41;;;14.79;86.18
35989;BME280;22064;42.672;23.282;2023-05-12T10:35:34;94943.31;;;15.22;84.97
35989;BME280;22064;42.672;23.282;2023-05-12T10:38:09;94945.66;;;15.39;80.77
35989;BME280;22064;42.672;23.282;2023-05-12T10:40:57;94946.69;;;15.48;76.26
35989;BME280;22064;42.672;23.282;2023-05-12T10:43:26;94950.41;;;15.67;77.26
35989;BME280;22064;42.672;23.282;2023-05-12T10:46:25;94948.53;;;15.73;75.00
35989;BME280;22064;42.672;23.282;2023-05-12T10:48:58;94946.94;;;15.82;73.77
35989;BME280;22064;42.672;23.282;2023-05-12T10:51:30;94947.78;;;16.37;71.49
35989;BME280;22064;42.672;23.282;2023-05-12T10:54:04;94939.72;;;16.19;66.70
35989;BME280;22064;42.672;23.282;2023-05-12T10:59:20;94945.75;;;16.24;67.80
35989;BME280;22064;42.672;23.282;2023-05-12T11:01:57;94935.06;;;16.05;68.75
35989;BME280;22064;42.672;23.282;2023-05-12T11:04:37;94946.34;;;16.06;71.02
35989;BME280;22064;42.672;23.282;2023-05-12T11:07:06;94947.22;;;15.86;69.08
35989;BME280;22064;42.672;23.282;2023-05-12T11:09:37;94945.66;;;15.80;72.11
35989;BME280;22064;42.672;23.282;2023-05-12T11:12:05;94953.81;;;15.58;74.43
35989;BME280;22064;42.672;23.282;2023-05-12T11:14:33;94944.91;;;15.33;74.86
35989;BME280;22064;42.672;23.282;2023-05-12T11:16:59;94945.69;;;15.29;76.26
35989;BME280;22064;42.672;23.282;2023-05-12T11:19:25;94947.00;;;15.31;79.03
35989;BME280;22064;42.672;23.282;2023-05-12T11:21:53;94949.09;;;15.34;80.02
35989;BME280;22064;42.672;23.282;2023-05-12T11:24:20;94948.06;;;15.30;80.77
35989;BME280;22064;42.672;23.282;2023-05-12T11:26:46;94953.28;;;15.35;78.51
35989;BME280;22064;42.672;23.282;2023-05-12T11:29:17;94952.25;;;14.95;80.80
35989;BME280;22064;42.672;23.282;2023-05-12T11:31:48;94946.47;;;14.98;81.89
35989;BME280;22064;42.672;23.282;2023-05-12T11:34:19;94953.28;;;14.89;83.40
35989;BME280;22064;42.672;23.282;2023-05-12T11:36:45;94955.91;;;14.99;84.68
35989;BME280;22064;42.672;23.282;2023-05-12T11:39:14;94951.19;;;15.01;84.17
35989;BME280;22064;42.672;23.282;2023-05-12T11:41:40;94956.19;;;15.08;82.96
35989;BME280;22064;42.672;23.282;2023-05-12T11:44:13;94948.03;;;15.20;82.72
35989;BME280;22064;42.672;23.282;2023-05-12T11:46:40;94944.63;;;15.35;84.60
35989;BME280;22064;42.672;23.282;2023-05-12T11:49:10;94951.69;;;15.55;82.48
35989;BME280;22064;42.672;23.282;2023-05-12T11:51:41;94944.09;;;15.58;76.70
35989;BME280;22064;42.672;23.282;2023-05-12T11:54:07;94937.25;;;15.62;78.03
35989;BME280;22064;42.672;23.282;2023-05-12T11:56:33;94942.50;;;15.62;79.15
35989;BME280;22064;42.672;23.282;2023-05-12T11:58:59;94945.66;;;15.64;80.88
35989;BME280;22064;42.672;23.282;2023-05-12T12:01:25;94939.63;;;15.59;79.82
35989;BME280;22064;42.672;23.282;2023-05-12T12:03:53;94948.78;;;15.66;76.72
35989;BME280;22064;42.672;23.282;2023-05-12T12:06:21;94940.91;;;15.82;72.35
35989;BME280;22064;42.672;23.282;2023-05-12T12:08:57;94940.69;;;15.58;76.19
35989;BME280;22064;42.672;23.282;2023-05-12T12:11:27;94938.06;;;15.68;77.61
35989;BME280;22064;42.672;23.282;2023-05-12T12:13:55;94949.84;;;15.60;77.17
35989;BME280;22064;42.672;23.282;2023-05-12T12:16:31;94946.69;;;15.48;76.34
35989;BME280;22064;42.672;23.282;2023-05-12T12:18:57;94942.00;;;15.40;73.24
35989;BME280;22064;42.672;23.282;2023-05-12T12:21:24;94948.03;;;15.40;72.04
35989;BME280;22064;42.672;23.282;2023-05-12T12:23:50;94954.84;;;15.46;74.21
35989;BME280;22064;42.672;23.282;2023-05-12T12:26:17;94954.31;;;15.75;76.03
35989;BME280;22064;42.672;23.282;2023-05-12T12:28:45;94942.75;;;15.66;74.07
35989;BME280;22064;42.672;23.282;2023-05-12T12:31:12;94950.38;;;15.52;73.16
35989;BME280;22064;42.672;23.282;2023-05-12T12:33:39;94948.56;;;15.17;77.49
35989;BME280;22064;42.672;23.282;2023-05-12T12:36:05;94952.25;;;15.21;79.14
35989;BME280;22064;42.672;23.282;2023-05-12T12:38:31;94952.00;;;15.33;79.09
35989;BME280;22064;42.672;23.282;2023-05-12T12:40:57;94947.53;;;15.13;84.07
35989;BME280;22064;42.672;23.282;2023-05-12T12:43:23;94947.50;;;15.23;79.61
35989;BME280;22064;42.672;23.282;2023-05-12T12:45:49;94946.47;;;15.24;76.58
35989;BME280;22064;42.672;23.282;2023-05-12T12:48:15;94943.84;;;15.14;74.59
35989;BME280;22064;42.672;23.282;2023-05-12T12:50:41;94941.75;;;14.95;72.82
35989;BME280;22064;42.672;23.282;2023-05-12T12:53:07;94931.53;;;14.84;71.79
35989;BME280;22064;42.672;23.282;2023-05-12T12:55:33;94944.09;;;14.92;70.97
35989;BME280;22064;42.672;23.282;2023-05-12T12:57:59;94928.63;;;14.85;72.20